createdAt,value
2018-09-29T00:01:41.770Z,6.97
2018-09-29T00:04:11.080Z,6.90
2018-09-29T00:06:40.527Z,7.27
2018-09-29T00:09:11.658Z,6.67
2018-09-29T00:11:41.311Z,6.97
2018-09-29T00:14:11.223Z,6.40
2018-09-29T00:16:40.566Z,8.97
2018-09-29T00:19:09.822Z,7.97
2018-09-29T00:21:39.158Z,8.77
2018-09-29T00:24:08.964Z,9.67
2018-09-29T00:26:38.303Z,9.73
2018-09-29T00:29:08.191Z,9.63
2018-09-29T00:31:37.475Z,8.63
2018-09-29T00:34:06.784Z,10.67
2018-09-29T00:36:36.932Z,10.47
2018-09-29T00:39:07.209Z,8.87
2018-09-29T00:41:36.852Z,8.50
2018-09-29T00:44:06.093Z,6.77
2018-09-29T00:46:35.672Z,6.63
2018-09-29T00:49:05.299Z,8.40
2018-09-29T00:51:34.372Z,7.47
2018-09-29T00:54:03.632Z,7.57
2018-09-29T00:56:33.056Z,8.67
2018-09-29T00:59:02.240Z,7.27
2018-09-29T01:01:32.024Z,7.03
2018-09-29T01:04:01.260Z,8.73
2018-09-29T01:06:30.435Z,7.13
2018-09-29T01:08:59.865Z,6.20
2018-09-29T01:11:29.184Z,6.50
2018-09-29T01:13:58.253Z,5.73
2018-09-29T01:16:27.508Z,4.63
2018-09-29T01:18:56.936Z,6.60
2018-09-29T01:21:26.343Z,5.40
2018-09-29T01:23:55.644Z,4.13
2018-09-29T01:26:25.099Z,4.37
2018-09-29T01:28:54.251Z,5.07
2018-09-29T01:31:23.572Z,6.13
2018-09-29T01:33:53.065Z,8.53
2018-09-29T01:36:22.692Z,7.30
2018-09-29T01:38:52.360Z,6.37
2018-09-29T01:41:21.619Z,7.10
2018-09-29T01:43:50.825Z,7.57
2018-09-29T01:46:19.936Z,7.57
2018-09-29T01:48:49.422Z,6.07
2018-09-29T01:51:18.720Z,6.50
2018-09-29T01:53:48.382Z,6.83
2018-09-29T01:56:17.805Z,4.93
2018-09-29T01:58:47.227Z,7.10
2018-09-29T02:01:16.393Z,5.43
2018-09-29T02:03:45.678Z,5.80
2018-09-29T02:06:15.052Z,10.40
2018-09-29T02:08:44.367Z,8.33
2018-09-29T02:11:13.770Z,6.63
2018-09-29T02:13:43.237Z,8.17
2018-09-29T02:16:12.839Z,9.80
2018-09-29T02:18:42.163Z,8.10
2018-09-29T02:21:11.201Z,6.17
2018-09-29T02:23:40.363Z,7.40
2018-09-29T02:26:09.884Z,6.47
2018-09-29T02:28:39.479Z,5.63
2018-09-29T02:31:08.744Z,6.10
2018-09-29T02:33:38.152Z,8.80
2018-09-29T02:36:07.619Z,10.53
2018-09-29T02:38:36.926Z,9.23
2018-09-29T02:41:06.719Z,6.67
2018-09-29T02:43:35.839Z,6.30
2018-09-29T02:46:05.345Z,8.90
2018-09-29T02:48:34.604Z,8.33
2018-09-29T02:51:03.820Z,7.20
2018-09-29T02:53:33.140Z,5.87
2018-09-29T02:56:02.632Z,6.13
2018-09-29T02:58:31.835Z,5.70
2018-09-29T03:01:01.565Z,11.03
2018-09-29T03:03:31.795Z,8.30
2018-09-29T03:06:01.051Z,7.07
2018-09-29T03:08:30.468Z,6.63
2018-09-29T03:10:59.589Z,9.03
2018-09-29T03:13:28.915Z,9.23
2018-09-29T03:15:58.177Z,7.10
2018-09-29T03:18:27.336Z,7.83
2018-09-29T03:20:56.951Z,7.37
2018-09-29T03:23:26.722Z,7.23
2018-09-29T03:25:56.355Z,6.87
2018-09-29T03:28:25.333Z,7.20
2018-09-29T03:30:54.655Z,7.07
2018-09-29T03:33:23.772Z,6.93
2018-09-29T03:35:53.012Z,8.47
2018-09-29T03:38:22.523Z,7.03
2018-09-29T03:40:51.947Z,8.23
2018-09-29T03:43:21.394Z,11.43
2018-09-29T03:45:50.827Z,9.53
2018-09-29T03:48:20.085Z,10.67
2018-09-29T03:50:49.375Z,11.03
2018-09-29T03:53:18.732Z,10.97
2018-09-29T03:55:48.053Z,7.73
2018-09-29T03:58:17.161Z,12.80
2018-09-29T04:00:46.429Z,8.27
2018-09-29T04:03:16.026Z,7.27
2018-09-29T04:05:45.553Z,8.13
2018-09-29T04:08:15.098Z,9.60
2018-09-29T04:10:44.712Z,8.90
2018-09-29T04:13:13.850Z,9.73
2018-09-29T04:15:42.985Z,8.50
2018-09-29T04:18:12.489Z,10.23
2018-09-29T04:20:41.791Z,8.57
2018-09-29T04:23:10.995Z,8.47
2018-09-29T04:25:40.534Z,11.27
2018-09-29T04:28:09.631Z,9.30
2018-09-29T04:30:39.126Z,10.30
2018-09-29T04:33:08.463Z,11.37
2018-09-29T04:35:38.137Z,13.37
2018-09-29T04:38:07.406Z,12.87
2018-09-29T04:40:37.014Z,12.77
2018-09-29T04:43:06.470Z,11.97
2018-09-29T04:45:35.463Z,11.10
2018-09-29T04:48:05.337Z,10.60
2018-09-29T04:50:34.727Z,10.90
2018-09-29T04:53:03.920Z,14.27
2018-09-29T04:55:34.090Z,11.80
2018-09-29T04:58:03.160Z,11.47
2018-09-29T05:00:32.324Z,12.20
2018-09-29T05:03:01.748Z,10.00
2018-09-29T05:05:30.874Z,10.87
2018-09-29T05:08:00.395Z,13.80
2018-09-29T05:10:29.662Z,10.30
2018-09-29T05:12:58.776Z,17.13
2018-09-29T05:15:28.084Z,12.47
2018-09-29T05:17:57.495Z,15.33
2018-09-29T05:20:26.805Z,15.93
2018-09-29T05:22:56.566Z,18.37
2018-09-29T05:25:26.076Z,17.37
2018-09-29T05:27:55.266Z,17.23
2018-09-29T05:30:24.270Z,19.60
2018-09-29T05:32:53.847Z,15.70
2018-09-29T05:35:22.921Z,13.60
2018-09-29T05:37:52.394Z,18.67
2018-09-29T05:40:21.504Z,19.30
2018-09-29T05:42:50.820Z,17.90
2018-09-29T05:45:20.184Z,22.37
2018-09-29T05:47:49.567Z,19.33
2018-09-29T05:50:19.048Z,21.07
2018-09-29T05:52:48.465Z,22.70
2018-09-29T05:55:17.584Z,19.43
2018-09-29T05:57:46.885Z,17.87
2018-09-29T06:00:16.425Z,19.27
2018-09-29T06:02:45.428Z,19.20
2018-09-29T06:05:14.629Z,18.10
2018-09-29T06:07:43.823Z,15.43
2018-09-29T06:10:13.096Z,21.03
2018-09-29T06:12:42.508Z,21.07
2018-09-29T06:15:11.997Z,19.57
2018-09-29T06:17:41.517Z,18.27
2018-09-29T06:20:11.048Z,18.63
2018-09-29T06:22:40.385Z,17.93
2018-09-29T06:25:09.744Z,15.57
2018-09-29T06:27:39.250Z,19.27
2018-09-29T06:30:08.317Z,17.07
2018-09-29T06:32:37.886Z,15.77
2018-09-29T06:35:07.501Z,12.70
2018-09-29T06:37:36.833Z,17.20
2018-09-29T06:40:06.469Z,16.27
2018-09-29T06:42:35.784Z,12.80
2018-09-29T06:45:05.782Z,19.87
2018-09-29T06:47:35.368Z,10.37
2018-09-29T06:50:04.932Z,11.47
2018-09-29T06:52:34.234Z,12.70
2018-09-29T06:55:03.647Z,10.80
2018-09-29T06:57:33.088Z,13.10
2018-09-29T07:00:02.710Z,13.37
2018-09-29T07:02:32.179Z,11.03
2018-09-29T07:05:02.150Z,10.70
2018-09-29T07:07:31.804Z,11.87
2018-09-29T07:10:01.020Z,75.77
2018-09-29T07:12:30.210Z,27.60
2018-09-29T07:14:59.725Z,15.77
2018-09-29T07:17:29.095Z,11.20
2018-09-29T07:19:58.347Z,8.40
2018-09-29T07:22:27.705Z,8.50
2018-09-29T07:24:56.770Z,9.43
2018-09-29T07:27:26.277Z,9.37
2018-09-29T07:29:55.866Z,9.40
2018-09-29T07:32:25.162Z,7.27
2018-09-29T07:34:54.707Z,36.43
2018-09-29T07:37:24.262Z,14.27
2018-09-29T07:39:53.674Z,12.47
2018-09-29T07:42:23.459Z,14.60
2018-09-29T07:44:53.042Z,8.70
2018-09-29T07:47:22.722Z,12.67
2018-09-29T07:49:52.112Z,21.63
2018-09-29T07:52:21.879Z,11.87
2018-09-29T07:54:51.352Z,9.43
2018-09-29T07:57:20.557Z,6.53
2018-09-29T07:59:50.063Z,10.13
2018-09-29T08:02:19.470Z,5.60
2018-09-29T08:04:48.868Z,8.03
2018-09-29T08:07:18.357Z,9.63
2018-09-29T08:09:47.619Z,10.57
2018-09-29T08:12:16.947Z,7.30
2018-09-29T08:14:47.323Z,8.90
2018-09-29T08:17:16.621Z,8.03
2018-09-29T08:19:45.564Z,9.93
2018-09-29T08:22:14.984Z,7.10
2018-09-29T08:24:44.363Z,6.07
2018-09-29T08:27:13.438Z,6.17
2018-09-29T08:29:42.803Z,7.90
2018-09-29T08:32:12.564Z,6.67
2018-09-29T08:34:42.410Z,9.50
2018-09-29T08:37:12.236Z,13.67
2018-09-29T08:39:41.790Z,8.50
2018-09-29T08:42:11.118Z,9.13
2018-09-29T08:44:40.962Z,6.50
2018-09-29T08:47:10.272Z,7.70
2018-09-29T08:49:39.650Z,11.60
2018-09-29T08:52:09.111Z,11.37
2018-09-29T08:54:39.118Z,9.43
2018-09-29T08:57:08.352Z,7.80
2018-09-29T08:59:38.019Z,11.27
2018-09-29T09:02:07.271Z,7.73
2018-09-29T09:04:36.745Z,9.70
2018-09-29T09:07:07.601Z,17.07
2018-09-29T09:09:37.189Z,10.47
2018-09-29T09:12:06.437Z,6.57
2018-09-29T09:14:35.728Z,6.60
2018-09-29T09:17:04.987Z,5.37
2018-09-29T09:19:34.155Z,5.57
2018-09-29T09:22:03.674Z,7.97
2018-09-29T09:24:33.303Z,8.17
2018-09-29T09:27:02.613Z,9.43
2018-09-29T09:29:32.000Z,6.03
2018-09-29T09:32:02.540Z,10.37
2018-09-29T09:34:33.201Z,10.50
2018-09-29T09:37:03.704Z,7.10
2018-09-29T09:39:34.208Z,7.43
2018-09-29T09:42:06.317Z,7.23
2018-09-29T09:44:37.978Z,5.90
2018-09-29T09:47:07.082Z,5.90
2018-09-29T09:49:36.705Z,7.00
2018-09-29T09:52:05.951Z,9.23
2018-09-29T09:54:35.137Z,5.03
2018-09-29T09:57:04.387Z,10.10
2018-09-29T09:59:34.241Z,8.10
2018-09-29T10:02:09.061Z,10.10
2018-09-29T10:04:39.827Z,5.07
2018-09-29T10:07:14.068Z,7.50
2018-09-29T10:09:44.063Z,4.63
2018-09-29T10:12:13.431Z,5.87
2018-09-29T10:14:43.476Z,4.03
2018-09-29T10:17:12.854Z,6.17
2018-09-29T10:19:43.092Z,5.03
2018-09-29T10:22:12.562Z,5.07
2018-09-29T10:24:41.717Z,3.77
2018-09-29T10:27:11.981Z,4.47
2018-09-29T10:29:42.430Z,6.17
2018-09-29T10:32:14.272Z,4.70
2018-09-29T10:34:43.910Z,4.40
2018-09-29T10:37:14.467Z,8.10
2018-09-29T10:39:43.840Z,6.97
2018-09-29T10:42:13.816Z,10.60
2018-09-29T10:44:43.260Z,3.50
2018-09-29T10:47:12.803Z,4.93
2018-09-29T10:49:42.645Z,3.13
2018-09-29T10:52:12.310Z,3.73
2018-09-29T10:54:41.795Z,6.97
2018-09-29T10:57:11.303Z,7.60
2018-09-29T10:59:40.655Z,10.03
2018-09-29T11:02:10.294Z,16.50
2018-09-29T11:04:40.336Z,24.63
2018-09-29T11:07:10.032Z,25.63
2018-09-29T11:09:39.275Z,21.33
2018-09-29T11:12:08.643Z,9.27
2018-09-29T11:14:37.713Z,15.83
2018-09-29T11:17:06.874Z,25.83
2018-09-29T11:19:36.164Z,8.37
2018-09-29T11:22:05.590Z,5.97
2018-09-29T11:24:35.270Z,6.77
2018-09-29T11:27:04.483Z,9.50
2018-09-29T11:29:35.427Z,11.17
2018-09-29T11:32:04.508Z,8.50
2018-09-29T11:34:33.988Z,13.17
2018-09-29T11:37:03.660Z,17.90
2018-09-29T11:39:33.292Z,9.57
2018-09-29T11:42:03.264Z,4.33
2018-09-29T11:44:32.350Z,6.43
2018-09-29T11:47:02.904Z,6.73
2018-09-29T11:49:32.265Z,9.67
2018-09-29T11:52:02.543Z,11.77
2018-09-29T11:54:34.931Z,9.70
2018-09-29T11:57:04.543Z,8.53
2018-09-29T11:59:34.673Z,10.87
2018-09-29T12:02:04.507Z,14.10
2018-09-29T12:04:37.247Z,10.33
2018-09-29T12:07:06.732Z,14.57
2018-09-29T12:09:41.080Z,6.00
2018-09-29T12:12:11.595Z,10.17
2018-09-29T12:14:41.107Z,8.70
2018-09-29T12:17:10.648Z,4.43
2018-09-29T12:19:42.438Z,4.13
2018-09-29T12:22:13.306Z,3.57
2018-09-29T12:24:42.754Z,8.87
2018-09-29T12:27:12.162Z,6.83
2018-09-29T12:29:41.538Z,4.87
2018-09-29T12:32:11.122Z,5.30
2018-09-29T12:34:40.670Z,6.00
2018-09-29T12:37:10.088Z,3.80
2018-09-29T12:39:39.271Z,5.43
2018-09-29T12:42:08.647Z,6.27
2018-09-29T12:44:37.996Z,4.60
2018-09-29T12:47:07.856Z,3.57
2018-09-29T12:49:37.044Z,4.33
2018-09-29T12:52:15.078Z,3.93
2018-09-29T12:54:44.671Z,3.47
2018-09-29T12:57:14.437Z,5.70
2018-09-29T12:59:44.781Z,3.67
2018-09-29T13:02:14.505Z,7.17
2018-09-29T13:04:43.969Z,6.43
2018-09-29T13:07:13.643Z,4.10
2018-09-29T13:09:43.261Z,6.20
2018-09-29T13:12:13.093Z,6.07
2018-09-29T13:14:42.521Z,6.53
2018-09-29T13:17:15.785Z,7.80
2018-09-29T13:19:45.369Z,10.30
2018-09-29T13:22:14.362Z,15.90
2018-09-29T13:24:43.704Z,10.13
2018-09-29T13:27:13.196Z,6.17
2018-09-29T13:29:42.538Z,8.53
2018-09-29T13:32:12.159Z,3.93
2018-09-29T13:34:41.376Z,3.70
2018-09-29T13:37:10.832Z,5.70
2018-09-29T13:39:39.879Z,4.20
2018-09-29T13:42:09.254Z,3.60
2018-09-29T13:44:38.848Z,6.80
2018-09-29T13:47:08.399Z,7.37
2018-09-29T13:49:37.896Z,5.50
2018-09-29T13:52:09.361Z,10.97
2018-09-29T13:54:38.616Z,7.50
2018-09-29T13:57:07.837Z,4.37
2018-09-29T13:59:37.637Z,6.13
2018-09-29T14:02:07.440Z,6.40
2018-09-29T14:04:36.704Z,3.13
2018-09-29T14:07:06.004Z,5.30
2018-09-29T14:09:35.563Z,14.07
2018-09-29T14:12:05.155Z,10.87
2018-09-29T14:14:34.555Z,44.43
2018-09-29T14:17:03.986Z,15.47
2018-09-29T14:19:34.624Z,11.67
2018-09-29T14:22:03.847Z,26.20
2018-09-29T14:24:33.269Z,14.30
2018-09-29T14:27:02.703Z,39.57
2018-09-29T14:29:31.646Z,20.13
2018-09-29T14:32:00.959Z,9.03
2018-09-29T14:34:30.662Z,13.73
2018-09-29T14:36:59.766Z,9.80
2018-09-29T14:39:28.972Z,7.70
2018-09-29T14:41:58.252Z,10.63
2018-09-29T14:44:27.844Z,11.90
2018-09-29T14:46:57.341Z,10.47
2018-09-29T14:49:26.935Z,6.67
2018-09-29T14:51:56.408Z,5.90
2018-09-29T14:54:26.033Z,26.63
2018-09-29T14:56:55.193Z,18.03
2018-09-29T14:59:24.938Z,15.53
2018-09-29T15:01:54.362Z,10.63
2018-09-29T15:04:23.560Z,24.03
2018-09-29T15:06:52.942Z,20.23
2018-09-29T15:09:22.111Z,14.50
2018-09-29T15:11:52.393Z,10.37
2018-09-29T15:14:21.952Z,17.00
2018-09-29T15:16:51.489Z,15.87
2018-09-29T15:19:20.892Z,13.83
2018-09-29T15:21:50.366Z,14.70
2018-09-29T15:24:20.833Z,23.57
2018-09-29T15:26:50.256Z,34.67
2018-09-29T15:29:19.889Z,30.70
2018-09-29T15:31:49.283Z,38.97
2018-09-29T15:34:18.957Z,32.77
2018-09-29T15:36:48.309Z,44.53
2018-09-29T15:39:17.521Z,54.70
2018-09-29T15:41:46.978Z,29.33
2018-09-29T15:44:16.648Z,20.97
2018-09-29T15:46:46.410Z,29.67
2018-09-29T15:49:15.697Z,27.47
2018-09-29T15:51:45.040Z,15.43
2018-09-29T15:54:14.160Z,24.17
2018-09-29T15:56:43.940Z,33.13
2018-09-29T15:59:13.283Z,20.33
2018-09-29T16:01:42.780Z,31.93
2018-09-29T16:04:12.291Z,29.47
2018-09-29T16:06:41.595Z,34.23
2018-09-29T16:09:11.448Z,32.87
2018-09-29T16:11:41.308Z,18.47
2018-09-29T16:14:10.420Z,33.90
2018-09-29T16:16:39.696Z,59.90
2018-09-29T16:19:09.391Z,62.13
2018-09-29T16:21:39.355Z,38.80
2018-09-29T16:24:09.145Z,35.03
2018-09-29T16:26:40.032Z,44.60
2018-09-29T16:29:09.841Z,42.50
2018-09-29T16:31:42.319Z,51.07
2018-09-29T16:34:13.065Z,63.37
2018-09-29T16:36:47.763Z,189.07
2018-09-29T16:39:17.992Z,163.03
2018-09-29T16:41:47.522Z,147.00
2018-09-29T16:44:16.857Z,168.17
2018-09-29T16:46:46.602Z,109.87
2018-09-29T16:49:15.956Z,105.50
2018-09-29T16:51:45.907Z,77.50
2018-09-29T16:54:15.628Z,52.43
2018-09-29T16:56:45.078Z,54.57
2018-09-29T16:59:14.333Z,44.10
2018-09-29T17:01:43.568Z,38.53
2018-09-29T17:04:12.938Z,38.87
2018-09-29T17:06:42.410Z,35.43
2018-09-29T17:09:12.857Z,29.00
2018-09-29T17:11:42.613Z,27.83
2018-09-29T17:14:12.488Z,53.23
2018-09-29T17:16:42.059Z,68.63
2018-09-29T17:19:11.420Z,57.47
2018-09-29T17:21:41.294Z,63.37
2018-09-29T17:24:10.806Z,65.23
2018-09-29T17:26:40.156Z,67.20
2018-09-29T17:29:09.278Z,68.50
2018-09-29T17:31:38.693Z,78.17
2018-09-29T17:34:07.790Z,75.07
2018-09-29T17:36:37.210Z,68.10
2018-09-29T17:39:08.848Z,71.87
2018-09-29T17:41:38.401Z,64.90
2018-09-29T17:44:08.632Z,75.77
2018-09-29T17:46:38.158Z,69.53
2018-09-29T17:49:07.663Z,70.93
2018-09-29T17:51:37.975Z,75.37
2018-09-29T17:54:07.375Z,69.53
2018-09-29T17:56:36.737Z,64.67
2018-09-29T17:59:06.444Z,61.43
2018-09-29T18:01:36.028Z,61.80
2018-09-29T18:04:05.591Z,58.13
2018-09-29T18:06:36.057Z,60.70
2018-09-29T18:09:07.792Z,73.77
2018-09-29T18:11:37.095Z,69.87
2018-09-29T18:14:06.556Z,57.60
2018-09-29T18:16:36.185Z,56.40
2018-09-29T18:19:05.918Z,53.83
2018-09-29T18:21:35.617Z,50.50
2018-09-29T18:24:04.977Z,51.93
2018-09-29T18:26:34.682Z,53.00
2018-09-29T18:29:04.042Z,51.70
2018-09-29T18:31:33.213Z,54.07
2018-09-29T18:34:02.505Z,54.30
2018-09-29T18:36:31.901Z,53.40
2018-09-29T18:39:00.943Z,49.33
2018-09-29T18:41:30.193Z,50.93
2018-09-29T18:43:59.460Z,56.97
2018-09-29T18:46:28.897Z,53.00
2018-09-29T18:48:58.284Z,37.60
2018-09-29T18:51:28.028Z,38.93
2018-09-29T18:53:57.229Z,45.20
2018-09-29T18:56:26.602Z,53.13
2018-09-29T18:58:56.475Z,53.90
2018-09-29T19:01:26.056Z,50.63
2018-09-29T19:03:55.655Z,49.43
2018-09-29T19:06:25.073Z,49.43
2018-09-29T19:08:54.279Z,43.63
2018-09-29T19:11:23.864Z,43.47
2018-09-29T19:13:53.217Z,39.57
2018-09-29T19:16:23.112Z,34.17
2018-09-29T19:18:52.851Z,33.13
2018-09-29T19:21:22.272Z,32.43
2018-09-29T19:23:51.719Z,43.10
2018-09-29T19:26:21.114Z,40.67
2018-09-29T19:28:50.521Z,46.13
2018-09-29T19:31:19.796Z,46.00
2018-09-29T19:33:49.211Z,50.53
2018-09-29T19:36:18.253Z,51.93
2018-09-29T19:38:47.572Z,45.07
2018-09-29T19:41:16.922Z,41.83
2018-09-29T19:43:46.165Z,32.53
2018-09-29T19:46:15.629Z,30.33
2018-09-29T19:48:44.724Z,28.60
2018-09-29T19:51:14.504Z,28.23
2018-09-29T19:53:43.869Z,33.37
2018-09-29T19:56:13.165Z,37.93
2018-09-29T19:58:42.369Z,39.50
2018-09-29T20:01:11.524Z,49.43
2018-09-29T20:03:40.848Z,47.20
2018-09-29T20:06:10.073Z,50.03
2018-09-29T20:08:39.284Z,57.80
2018-09-29T20:11:08.752Z,51.07
2018-09-29T20:13:38.206Z,58.23
2018-09-29T20:16:07.842Z,70.13
2018-09-29T20:18:37.304Z,59.07
2018-09-29T20:21:07.103Z,59.87
2018-09-29T20:23:36.161Z,57.87
2018-09-29T20:26:05.659Z,59.20
2018-09-29T20:28:35.250Z,65.67
2018-09-29T20:31:05.255Z,57.80
2018-09-29T20:33:34.336Z,57.80
2018-09-29T20:36:03.899Z,58.97
2018-09-29T20:38:33.335Z,56.37
2018-09-29T20:41:02.776Z,54.70
2018-09-29T20:43:32.750Z,44.00
2018-09-29T20:46:02.941Z,45.10
2018-09-29T20:48:32.168Z,51.97
2018-09-29T20:51:01.242Z,54.07
2018-09-29T20:53:31.297Z,52.77
2018-09-29T20:56:00.624Z,47.73
2018-09-29T20:58:29.760Z,44.80
2018-09-29T21:00:59.264Z,44.30
2018-09-29T21:03:28.349Z,42.37
2018-09-29T21:05:57.796Z,41.13
2018-09-29T21:08:27.146Z,40.33
2018-09-29T21:10:56.303Z,49.73
2018-09-29T21:13:25.606Z,49.70
2018-09-29T21:15:54.709Z,60.00
2018-09-29T21:18:24.089Z,61.10
2018-09-29T21:20:53.252Z,63.53
2018-09-29T21:23:22.733Z,62.77
2018-09-29T21:25:52.127Z,64.03
2018-09-29T21:28:21.335Z,78.30
2018-09-29T21:30:50.897Z,75.67
2018-09-29T21:33:19.974Z,67.37
2018-09-29T21:35:49.425Z,78.50
2018-09-29T21:38:18.773Z,70.63
2018-09-29T21:40:48.045Z,65.57
2018-09-29T21:43:16.939Z,60.13
2018-09-29T21:45:46.416Z,62.57
2018-09-29T21:48:16.534Z,65.07
2018-09-29T21:50:46.101Z,63.13
2018-09-29T21:53:15.235Z,62.63
2018-09-29T21:55:44.407Z,61.27
2018-09-29T21:58:13.611Z,57.40
2018-09-29T22:00:44.316Z,65.67
2018-09-29T22:03:14.850Z,60.87
2018-09-29T22:05:44.532Z,55.10
2018-09-29T22:08:14.096Z,73.10
2018-09-29T22:10:43.840Z,51.17
2018-09-29T22:13:13.186Z,51.17
2018-09-29T22:15:42.349Z,59.97
2018-09-29T22:18:11.613Z,59.43
2018-09-29T22:20:41.039Z,60.47
2018-09-29T22:23:10.328Z,56.10
2018-09-29T22:25:40.006Z,56.60
2018-09-29T22:28:09.036Z,54.13
2018-09-29T22:30:38.781Z,56.23
2018-09-29T22:33:08.600Z,67.30
2018-09-29T22:35:37.981Z,62.67
2018-09-29T22:38:08.078Z,68.37
2018-09-29T22:40:37.333Z,59.47
2018-09-29T22:43:06.927Z,61.57
2018-09-29T22:45:36.356Z,55.17
2018-09-29T22:48:05.899Z,56.50
2018-09-29T22:50:36.190Z,47.80
2018-09-29T22:53:05.582Z,52.50
2018-09-29T22:55:34.921Z,48.83
2018-09-29T22:58:04.325Z,45.27
2018-09-29T23:00:33.399Z,51.43
2018-09-29T23:03:02.609Z,52.23
2018-09-29T23:05:31.848Z,49.53
2018-09-29T23:08:02.328Z,45.63
2018-09-29T23:10:31.296Z,43.10
2018-09-29T23:13:00.351Z,40.90
2018-09-29T23:15:29.764Z,49.20
2018-09-29T23:17:59.215Z,45.07
2018-09-29T23:20:28.526Z,48.47
2018-09-29T23:22:58.204Z,44.07
2018-09-29T23:25:27.365Z,48.67
2018-09-29T23:27:56.751Z,41.73
2018-09-29T23:30:26.156Z,38.63
2018-09-29T23:32:55.452Z,44.67
2018-09-29T23:35:24.788Z,40.93
2018-09-29T23:37:53.945Z,42.40
2018-09-29T23:40:23.141Z,43.20
2018-09-29T23:42:52.399Z,41.40
2018-09-29T23:45:21.918Z,44.87
2018-09-29T23:47:51.120Z,45.57
2018-09-29T23:50:20.585Z,39.57
2018-09-29T23:52:50.117Z,38.87
2018-09-29T23:55:19.423Z,37.53
2018-09-29T23:57:48.565Z,38.00
